Terminal Aerodrome Forecast
Issued by NWS Flagstaff, AZ

Home | Current Version | Previous Version | Text Only | Print | Product List | Glossary On
Versions: 1 2 3 4 5 6 7 8 9 10 11 12 13 14 15
000
FTUS45 KFGZ 050530
TAFINW
TAF
KINW 050530Z 0506/0606 22008KT P6SM SCT060 BKN100
     FM051800 26009KT P6SM SCT050 BKN090 PROB30 0520/0602 5SM -TSRA
      FEW050 OVC090CB
     FM060400 VRB03KT P6SM SCT090=

USA.gov is the U.S. government's official web portal to all federal, state and local government web resources and services.